Time;durP1;ratioP1;P1;durP2;ratioP2;P2;SDS_P1;SDS_P2;PMS_P1;PMS_P2;Temp;Humidity;BMP_temperature;BMP_pressure;BME280_temperature;BME280_humidity;BME280_pressure;Samples;Min_cycle;Max_cycle;Signal;HPM_P1;HPM_P2
2021/04/22 00:00:31;;;;;;;10.02;7.75;;;7.90;99.90;;;;;;5069040;28;20333;-71
2021/04/22 00:02:57;;;;;;;9.80;7.88;;;7.90;99.90;;;;;;5069232;28;20201;-72
2021/04/22 00:05:28;;;;;;;9.23;7.70;;;7.80;99.90;;;;;;5069238;28;20207;-71
2021/04/22 00:07:55;;;;;;;8.43;7.40;;;7.90;99.90;;;;;;5069006;28;20337;-71
2021/04/22 00:10:25;;;;;;;12.10;7.63;;;7.90;99.90;;;;;;5068478;28;20764;-71
2021/04/22 00:12:52;;;;;;;9.82;8.45;;;8.00;99.90;;;;;;5069155;28;20318;-72
2021/04/22 00:15:20;;;;;;;13.40;8.15;;;8.10;99.90;;;;;;5069033;28;20216;-71
2021/04/22 00:17:48;;;;;;;12.45;9.05;;;8.20;99.90;;;;;;5069214;28;20208;-71
2021/04/22 00:20:15;;;;;;;10.27;8.45;;;8.20;99.90;;;;;;5068379;28;20224;-72
2021/04/22 00:22:42;;;;;;;11.23;8.48;;;8.30;99.90;;;;;;5069274;28;20196;-71
2021/04/22 00:25:10;;;;;;;10.23;8.93;;;8.40;99.90;;;;;;5069144;28;20219;-71
2021/04/22 00:27:36;;;;;;;11.00;8.55;;;8.60;99.90;;;;;;5069089;28;20204;-72
2021/04/22 00:30:06;;;;;;;9.25;8.25;;;8.70;99.90;;;;;;5068902;28;20666;-71
2021/04/22 00:32:32;;;;;;;10.50;8.10;;;8.90;99.90;;;;;;5050064;28;542535;-71
2021/04/22 00:34:58;;;;;;;11.48;8.10;;;9.00;99.90;;;;;;5069439;28;20207;-71
2021/04/22 00:37:24;;;;;;;9.55;7.38;;;9.10;99.90;;;;;;5069532;28;20207;-72
2021/04/22 00:39:51;;;;;;;11.65;8.55;;;9.20;99.90;;;;;;5069534;28;20224;-71
2021/04/22 00:42:17;;;;;;;10.10;8.60;;;9.30;99.90;;;;;;5068940;28;20580;-72
2021/04/22 00:44:46;;;;;;;11.60;8.05;;;9.40;99.90;;;;;;5069607;28;20197;-71
2021/04/22 00:47:14;;;;;;;12.55;8.82;;;9.50;99.90;;;;;;5069177;28;20249;-72
2021/04/22 00:49:41;;;;;;;10.32;8.77;;;9.50;99.90;;;;;;5069415;28;20228;-71
2021/04/22 00:52:08;;;;;;;11.98;8.65;;;9.60;99.90;;;;;;5069170;28;20219;-71
2021/04/22 00:54:35;;;;;;;10.05;8.73;;;9.70;99.90;;;;;;5069299;28;20208;-71
2021/04/22 00:57:02;;;;;;;10.10;8.45;;;9.70;99.90;;;;;;5069216;28;20220;-71
2021/04/22 00:59:28;;;;;;;10.85;9.77;;;9.80;99.90;;;;;;5069144;28;20224;-71
2021/04/22 01:01:54;;;;;;;12.40;10.43;;;9.80;99.90;;;;;;5068775;28;20209;-71
2021/04/22 01:04:21;;;;;;;14.70;11.25;;;9.80;99.90;;;;;;5069079;28;20990;-71
2021/04/22 01:06:48;;;;;;;12.35;10.30;;;9.80;99.90;;;;;;5069224;28;20196;-71
2021/04/22 01:09:14;;;;;;;12.52;10.18;;;9.80;99.90;;;;;;5069173;28;20239;-72
2021/04/22 01:11:41;;;;;;;12.80;11.48;;;9.90;99.90;;;;;;5069122;28;20269;-72
2021/04/22 01:14:08;;;;;;;12.65;10.95;;;9.80;99.90;;;;;;5069300;28;20204;-72
2021/04/22 01:16:35;;;;;;;12.80;11.13;;;9.90;99.90;;;;;;5068991;28;20309;-71
2021/04/22 01:19:01;;;;;;;15.30;11.40;;;9.90;99.90;;;;;;5068952;28;20231;-71
2021/04/22 01:21:28;;;;;;;14.60;11.95;;;9.90;99.90;;;;;;5068563;28;20201;-71
2021/04/22 01:23:55;;;;;;;12.70;11.18;;;9.90;99.90;;;;;;5072167;28;20311;-71
2021/04/22 01:26:23;;;;;;;12.77;10.95;;;10.00;99.90;;;;;;5073168;28;20205;-71
2021/04/22 01:28:49;;;;;;;11.80;10.60;;;10.00;99.90;;;;;;5073038;28;20220;-71
2021/04/22 01:31:16;;;;;;;13.48;10.80;;;10.00;99.90;;;;;;5141108;22;20208;-72
2021/04/22 01:33:42;;;;;;;11.73;10.60;;;10.00;99.90;;;;;;5412443;22;20964;-72
2021/04/22 01:36:09;;;;;;;11.95;10.65;;;9.90;99.90;;;;;;5147308;22;20284;-73
2021/04/22 01:38:37;;;;;;;12.65;11.35;;;9.90;99.90;;;;;;5108061;28;20222;-73
2021/04/22 01:41:05;;;;;;;14.48;11.55;;;9.90;99.90;;;;;;5093284;28;20207;-73
2021/04/22 01:43:32;;;;;;;12.48;11.18;;;9.90;99.90;;;;;;5093347;28;20207;-73
2021/04/22 01:45:59;;;;;;;13.82;11.50;;;10.00;99.90;;;;;;5093438;28;20274;-73
2021/04/22 01:48:27;;;;;;;17.02;12.90;;;10.00;99.90;;;;;;5093322;28;20591;-73
2021/04/22 01:50:53;;;;;;;14.20;12.77;;;10.00;99.90;;;;;;5093309;28;20268;-73
2021/04/22 01:53:20;;;;;;;15.10;12.20;;;10.00;99.90;;;;;;5093186;28;20204;-73
2021/04/22 01:55:49;;;;;;;12.27;11.05;;;10.00;99.90;;;;;;5093239;28;20273;-73
2021/04/22 01:58:17;;;;;;;12.60;11.40;;;10.00;99.90;;;;;;5093330;28;20223;-73
2021/04/22 02:00:45;;;;;;;14.90;12.25;;;10.00;99.90;;;;;;5092448;28;20204;-74
2021/04/22 02:03:13;;;;;;;14.68;12.05;;;10.10;99.90;;;;;;5093010;28;20556;-73
2021/04/22 02:05:39;;;;;;;12.90;11.65;;;10.10;99.90;;;;;;5093028;28;20204;-73
2021/04/22 02:08:07;;;;;;;13.32;11.93;;;10.10;99.90;;;;;;5092910;28;20273;-73
2021/04/22 02:10:34;;;;;;;14.75;11.75;;;10.00;99.90;;;;;;5092686;28;20196;-73
2021/04/22 02:13:02;;;;;;;11.95;10.70;;;10.00;99.90;;;;;;5092736;28;20214;-73
2021/04/22 02:15:31;;;;;;;16.92;12.90;;;10.00;99.90;;;;;;5092897;28;20220;-73
2021/04/22 02:17:58;;;;;;;13.95;12.18;;;10.00;99.90;;;;;;5092713;28;20207;-73
2021/04/22 02:20:25;;;;;;;15.35;13.75;;;10.00;99.90;;;;;;5092547;28;20204;-72
2021/04/22 02:22:52;;;;;;;16.80;13.93;;;10.00;99.90;;;;;;5092467;28;20579;-72
2021/04/22 02:25:21;;;;;;;16.35;14.40;;;10.00;99.90;;;;;;5092928;28;20199;-73
2021/04/22 02:27:47;;;;;;;16.73;13.95;;;10.00;99.90;;;;;;5092513;28;20204;-73
2021/04/22 02:30:18;;;;;;;14.85;13.35;;;10.00;99.90;;;;;;5092188;28;20729;-73
2021/04/22 02:32:45;;;;;;;17.23;15.20;;;9.90;99.90;;;;;;5092885;28;20196;-73
2021/04/22 02:35:14;;;;;;;16.15;14.48;;;9.90;99.90;;;;;;5091824;28;20215;-70
2021/04/22 02:37:40;;;;;;;17.42;15.57;;;9.90;99.90;;;;;;5092630;28;20203;-71
2021/04/22 02:40:08;;;;;;;20.27;15.85;;;9.80;99.90;;;;;;5091948;28;20230;-71
2021/04/22 02:42:35;;;;;;;17.58;14.75;;;9.80;99.90;;;;;;5092746;28;20207;-71
2021/04/22 02:45:01;;;;;;;19.88;15.88;;;9.70;99.90;;;;;;5092247;28;20636;-72
2021/04/22 02:47:28;;;;;;;18.90;15.88;;;9.80;99.90;;;;;;5092198;28;20204;-71
2021/04/22 02:49:54;;;;;;;22.77;18.13;;;9.70;99.90;;;;;;5092158;28;20223;-72
2021/04/22 02:52:21;;;;;;;21.23;16.48;;;9.70;99.90;;;;;;5092073;28;20204;-71
2021/04/22 02:54:47;;;;;;;19.70;16.25;;;9.60;99.90;;;;;;5092190;28;20195;-71
2021/04/22 02:57:13;;;;;;;20.77;18.40;;;9.60;99.90;;;;;;5092222;28;20277;-71
2021/04/22 02:59:40;;;;;;;20.73;17.75;;;9.60;99.90;;;;;;5092157;28;20641;-71
2021/04/22 03:02:06;;;;;;;21.50;18.45;;;9.60;99.90;;;;;;5091917;28;20502;-71
2021/04/22 03:04:33;;;;;;;24.05;19.10;;;9.50;99.90;;;;;;5092103;28;20204;-71
2021/04/22 03:06:59;;;;;;;22.40;19.63;;;9.60;99.90;;;;;;5091706;28;20241;-71
2021/04/22 03:09:25;;;;;;;20.45;18.05;;;9.60;99.90;;;;;;5091715;28;20223;-71
2021/04/22 03:11:52;;;;;;;24.60;19.17;;;9.60;99.90;;;;;;5091276;28;20686;-72
2021/04/22 03:14:19;;;;;;;26.75;20.02;;;9.50;99.90;;;;;;5091897;28;20208;-71
2021/04/22 03:16:45;;;;;;;26.50;19.98;;;9.50;99.90;;;;;;5091755;28;20227;-71
2021/04/22 03:19:11;;;;;;;24.48;19.92;;;9.50;99.90;;;;;;5091456;28;20226;-71
2021/04/22 03:21:38;;;;;;;25.88;19.65;;;9.50;99.90;;;;;;5091300;28;20209;-71
2021/04/22 03:24:06;;;;;;;25.08;20.73;;;9.50;99.90;;;;;;5091446;28;20725;-71
2021/04/22 03:26:32;;;;;;;23.77;20.40;;;9.50;99.90;;;;;;5091447;28;20196;-72
2021/04/22 03:28:58;;;;;;;22.40;19.80;;;9.40;99.90;;;;;;5091211;28;20246;-72
2021/04/22 03:31:26;;;;;;;22.48;18.77;;;9.40;99.90;;;;;;5090656;28;20703;-71
2021/04/22 03:33:53;;;;;;;27.80;19.20;;;9.40;99.90;;;;;;5090840;28;20710;-72
2021/04/22 03:36:19;;;;;;;24.77;20.15;;;9.40;99.90;;;;;;5070333;28;20937;-72
2021/04/22 03:38:46;;;;;;;24.48;18.67;;;9.40;99.90;;;;;;5070638;28;20592;-72
2021/04/22 03:41:12;;;;;;;21.92;17.95;;;9.40;99.90;;;;;;5070362;28;20201;-72
2021/04/22 03:43:38;;;;;;;21.38;18.73;;;9.50;99.90;;;;;;5070702;28;20223;-72
2021/04/22 03:46:04;;;;;;;21.38;17.05;;;9.40;99.90;;;;;;5070138;28;20201;-71
2021/04/22 03:48:31;;;;;;;22.30;18.30;;;9.30;99.90;;;;;;5071481;28;20224;-71
2021/04/22 03:50:57;;;;;;;22.55;18.05;;;9.30;99.90;;;;;;5071134;28;20205;-72
2021/04/22 03:53:23;;;;;;;23.17;17.50;;;9.30;99.90;;;;;;5071183;28;20204;-72
2021/04/22 03:55:50;;;;;;;25.35;19.58;;;9.30;99.90;;;;;;5081573;28;20216;-72
2021/04/22 03:58:17;;;;;;;21.95;18.92;;;9.30;99.90;;;;;;5094998;28;20274;-70
2021/04/22 04:00:43;;;;;;;24.33;20.45;;;9.20;99.90;;;;;;5096366;28;20188;-71
2021/04/22 04:03:10;;;;;;;22.70;18.92;;;9.10;99.90;;;;;;5075088;28;21114;-71
2021/04/22 04:05:36;;;;;;;26.42;19.92;;;9.00;99.90;;;;;;5069780;28;20196;-71
2021/04/22 04:08:03;;;;;;;26.17;20.60;;;8.90;99.90;;;;;;5073806;28;20207;-71
2021/04/22 04:10:29;;;;;;;26.38;20.80;;;8.90;99.90;;;;;;5068563;28;20671;-71
2021/04/22 04:12:56;;;;;;;23.30;18.67;;;8.80;99.90;;;;;;5069110;28;20200;-71
2021/04/22 04:15:22;;;;;;;24.30;19.55;;;8.70;99.90;;;;;;5069050;28;20295;-71
2021/04/22 04:17:49;;;;;;;26.25;18.08;;;8.70;99.90;;;;;;5068837;28;20461;-72
2021/04/22 04:20:16;;;;;;;22.45;17.50;;;8.60;99.90;;;;;;5070102;28;20599;-72
2021/04/22 04:22:42;;;;;;;20.80;17.00;;;8.50;99.90;;;;;;5070093;28;20262;-71
2021/04/22 04:25:11;;;;;;;22.45;17.83;;;8.50;99.90;;;;;;5070828;28;20208;-71
2021/04/22 04:27:37;;;;;;;20.98;18.27;;;8.50;99.90;;;;;;5071177;28;20200;-72
2021/04/22 04:30:06;;;;;;;20.17;16.90;;;8.40;99.90;;;;;;5068699;28;20266;-71
2021/04/22 04:32:32;;;;;;;19.65;16.83;;;8.40;99.90;;;;;;5069346;28;20623;-71
2021/04/22 04:34:58;;;;;;;20.80;16.58;;;8.30;99.90;;;;;;5068329;28;20675;-71
2021/04/22 04:37:24;;;;;;;22.02;17.20;;;8.30;99.90;;;;;;5069041;28;20221;-71
2021/04/22 04:39:51;;;;;;;20.23;16.85;;;8.40;99.90;;;;;;5068607;28;20228;-71
2021/04/22 04:42:18;;;;;;;24.95;17.63;;;8.40;99.90;;;;;;5068637;28;20204;-71
2021/04/22 04:44:44;;;;;;;20.35;17.10;;;8.40;99.90;;;;;;5068276;28;20208;-72
2021/04/22 04:47:11;;;;;;;19.10;16.48;;;8.50;99.90;;;;;;5068657;28;20203;-73
2021/04/22 04:49:37;;;;;;;20.92;17.77;;;8.50;99.90;;;;;;5068920;28;20274;-71
2021/04/22 04:52:04;;;;;;;20.90;16.50;;;8.50;99.90;;;;;;5068070;28;20211;-71
2021/04/22 04:54:30;;;;;;;21.63;17.80;;;8.50;99.90;;;;;;5069205;28;20206;-71
2021/04/22 04:56:57;;;;;;;20.75;16.08;;;8.40;99.90;;;;;;5068105;28;20231;-71
2021/04/22 04:59:24;;;;;;;19.17;15.20;;;8.40;99.90;;;;;;5068857;28;20232;-71
2021/04/22 05:01:50;;;;;;;21.40;17.17;;;8.40;99.90;;;;;;5082750;28;20574;-71
2021/04/22 05:04:17;;;;;;;18.70;16.67;;;8.30;99.90;;;;;;5088598;28;20211;-71
2021/04/22 05:06:43;;;;;;;22.42;17.73;;;8.30;99.90;;;;;;5088940;28;20203;-71
2021/04/22 05:09:09;;;;;;;21.30;16.52;;;8.30;99.90;;;;;;5088085;28;20227;-71
2021/04/22 05:11:36;;;;;;;20.65;16.63;;;8.20;99.90;;;;;;5087805;28;20203;-71
2021/04/22 05:14:02;;;;;;;22.58;17.52;;;8.20;99.90;;;;;;5088661;28;20199;-71
2021/04/22 05:16:28;;;;;;;20.38;16.90;;;8.20;99.90;;;;;;5088710;28;20280;-71
2021/04/22 05:18:55;;;;;;;19.45;16.40;;;8.20;99.90;;;;;;5088680;28;20729;-71
2021/04/22 05:21:22;;;;;;;22.92;16.65;;;8.20;99.90;;;;;;5088259;28;20757;-71
2021/04/22 05:23:48;;;;;;;24.48;18.55;;;8.20;99.90;;;;;;5088766;28;20199;-71
2021/04/22 05:26:14;;;;;;;22.48;16.83;;;8.20;99.90;;;;;;5089028;28;20630;-71
2021/04/22 05:28:40;;;;;;;21.75;17.35;;;8.30;99.90;;;;;;5088787;28;20223;-71
2021/04/22 05:31:07;;;;;;;20.98;16.77;;;8.40;99.90;;;;;;5088334;28;20208;-71
2021/04/22 05:33:33;;;;;;;18.85;15.63;;;8.40;99.90;;;;;;5134055;22;20219;-90
2021/04/22 05:35:59;;;;;;;19.52;16.05;;;8.60;99.90;;;;;;5101021;28;20222;-90
2021/04/22 05:38:27;;;;;;;19.25;16.20;;;8.70;99.90;;;;;;5092996;28;20200;-90
2021/04/22 05:40:53;;;;;;;23.08;17.10;;;8.80;99.90;;;;;;5093452;28;20229;-90
2021/04/22 05:43:19;;;;;;;18.00;15.60;;;8.80;99.90;;;;;;5088121;28;20659;-89
2021/04/22 05:45:47;;;;;;;21.13;16.45;;;8.90;99.90;;;;;;5073365;28;20202;-90
2021/04/22 05:48:13;;;;;;;22.00;16.60;;;9.00;99.90;;;;;;5078775;28;20211;-90
2021/04/22 05:50:40;;;;;;;20.70;15.57;;;9.10;99.90;;;;;;5079411;28;20204;-91
2021/04/22 05:53:06;;;;;;;22.63;16.33;;;9.10;99.90;;;;;;5073582;28;20712;-90
2021/04/22 05:55:33;;;;;;;22.63;17.45;;;9.20;99.90;;;;;;5072113;28;20208;-89
2021/04/22 05:58:01;;;;;;;21.15;16.10;;;9.20;99.90;;;;;;5071253;28;20246;-89
2021/04/22 06:00:29;;;;;;;21.55;15.23;;;9.20;99.90;;;;;;5070810;28;20205;-90
2021/04/22 06:02:56;;;;;;;18.60;15.40;;;9.20;99.90;;;;;;5071184;28;20201;-89
2021/04/22 06:05:24;;;;;;;20.33;15.25;;;9.30;99.90;;;;;;5071222;28;20201;-91
2021/04/22 06:07:50;;;;;;;21.75;16.20;;;9.20;99.90;;;;;;5071436;28;20212;-89
2021/04/22 06:10:17;;;;;;;17.35;15.55;;;9.10;99.90;;;;;;5074154;28;20200;-88
2021/04/22 06:12:44;;;;;;;20.70;16.20;;;9.10;99.90;;;;;;5074624;28;20208;-87
2021/04/22 06:15:12;;;;;;;17.95;15.98;;;9.20;99.90;;;;;;5077692;28;20200;-89
2021/04/22 06:17:42;;;;;;;22.15;17.52;;;9.20;99.90;;;;;;5077663;28;20235;-87
2021/04/22 06:20:12;;;;;;;23.20;17.77;;;9.20;99.90;;;;;;5077147;28;20661;-89
2021/04/22 06:22:38;;;;;;;18.83;15.65;;;9.30;99.90;;;;;;5080512;28;20644;-92
2021/04/22 06:25:05;;;;;;;17.63;15.80;;;9.40;99.90;;;;;;5079071;28;20704;-93
2021/04/22 06:27:32;;;;;;;21.55;16.42;;;9.50;99.90;;;;;;5082209;28;20212;-91
2021/04/22 06:30:00;;;;;;;19.17;16.67;;;9.60;99.90;;;;;;5080390;28;20609;-92
2021/04/22 06:32:27;;;;;;;22.05;17.58;;;9.60;99.90;;;;;;5076765;28;20979;-88
2021/04/22 06:34:53;;;;;;;20.58;16.83;;;9.70;99.90;;;;;;5075748;28;20250;-89
2021/04/22 06:37:20;;;;;;;20.30;17.85;;;9.80;99.90;;;;;;5075057;28;20224;-88
2021/04/22 06:39:47;;;;;;;21.55;16.65;;;9.80;99.90;;;;;;5077480;28;20227;-92
2021/04/22 06:42:14;;;;;;;19.02;15.43;;;9.80;99.90;;;;;;5076480;28;20226;-91
2021/04/22 06:44:42;;;;;;;21.38;17.52;;;9.90;99.90;;;;;;5076853;28;20239;-92
2021/04/22 06:47:10;;;;;;;19.73;16.80;;;9.90;99.90;;;;;;5077187;28;20642;-91
2021/04/22 06:49:36;;;;;;;19.70;17.15;;;9.80;99.90;;;;;;5077050;28;20275;-91
2021/04/22 06:52:03;;;;;;;19.45;17.25;;;9.70;99.90;;;;;;5076545;28;20637;-90
2021/04/22 06:54:29;;;;;;;19.92;16.05;;;9.70;99.90;;;;;;5078712;28;20603;-92
2021/04/22 06:57:02;;;;;;;25.35;17.08;;;9.70;99.90;;;;;;5073377;28;20221;-90
2021/04/22 07:02:51;;;;;;;20.48;14.85;;;9.70;99.90;;;;;;5081903;22;20717;-71
2021/04/22 07:05:18;;;;;;;24.38;17.25;;;9.60;99.90;;;;;;5072940;28;20273;-71
2021/04/22 07:07:45;;;;;;;19.05;14.40;;;9.60;99.90;;;;;;5089707;28;20667;-72
2021/04/22 07:10:13;;;;;;;17.83;14.90;;;9.70;99.90;;;;;;5069774;28;20703;-72
2021/04/22 07:12:40;;;;;;;16.55;14.43;;;9.70;99.90;;;;;;5067431;28;20208;-71
2021/04/22 07:15:08;;;;;;;16.83;15.02;;;9.80;99.90;;;;;;5068601;28;20204;-72
2021/04/22 07:17:35;;;;;;;19.50;14.13;;;9.90;99.90;;;;;;5069340;28;20224;-70
2021/04/22 07:20:05;;;;;;;15.35;13.45;;;10.00;99.90;;;;;;5061013;28;20251;-70
2021/04/22 07:22:31;;;;;;;18.63;14.13;;;9.90;99.90;;;;;;5046202;28;20209;-73
2021/04/22 07:24:57;;;;;;;20.73;14.18;;;10.00;99.90;;;;;;5058655;28;20209;-72
2021/04/22 07:27:24;;;;;;;17.38;12.70;;;10.00;99.90;;;;;;5059738;28;20286;-71
2021/04/22 07:29:50;;;;;;;18.40;15.23;;;10.00;99.90;;;;;;5068669;28;20307;-71
2021/04/22 07:32:19;;;;;;;21.80;14.43;;;10.10;99.90;;;;;;5065954;28;20207;-72
2021/04/22 07:34:47;;;;;;;17.65;13.38;;;10.30;99.90;;;;;;5048931;28;20675;-70
2021/04/22 07:37:14;;;;;;;16.80;13.90;;;10.40;99.90;;;;;;5049096;28;20319;-72
2021/04/22 07:39:41;;;;;;;15.57;13.90;;;10.50;99.90;;;;;;5048934;28;20244;-71
2021/04/22 07:42:07;;;;;;;15.38;13.43;;;10.50;99.90;;;;;;5048492;28;20246;-71
2021/04/22 07:44:34;;;;;;;16.08;13.60;;;10.50;99.90;;;;;;5068063;28;20231;-73
2021/04/22 07:47:02;;;;;;;16.13;12.75;;;10.60;99.90;;;;;;5068282;28;20197;-71
2021/04/22 07:49:28;;;;;;;19.95;13.20;;;10.70;99.90;;;;;;5067846;28;20315;-71
2021/04/22 07:51:55;;;;;;;14.65;12.88;;;10.80;99.90;;;;;;5058980;28;20230;-71
2021/04/22 07:54:22;;;;;;;17.27;13.50;;;10.90;99.90;;;;;;5047429;28;20201;-71
2021/04/22 07:56:48;;;;;;;15.73;13.43;;;10.90;99.90;;;;;;5051165;28;20231;-70
2021/04/22 07:59:15;;;;;;;18.02;14.85;;;10.80;99.90;;;;;;5067161;28;20599;-70
2021/04/22 08:01:41;;;;;;;14.18;11.27;;;10.80;99.90;;;;;;5065048;28;20228;-70
2021/04/22 08:04:07;;;;;;;14.10;12.25;;;10.80;99.90;;;;;;5052496;28;20205;-71
2021/04/22 08:06:34;;;;;;;18.48;12.98;;;10.80;99.90;;;;;;5053551;28;20204;-70
2021/04/22 08:09:01;;;;;;;15.00;12.07;;;10.90;99.90;;;;;;5052204;28;20225;-70
2021/04/22 08:11:28;;;;;;;14.23;12.00;;;10.90;99.90;;;;;;5055477;28;20627;-71
2021/04/22 08:13:55;;;;;;;18.38;12.63;;;11.00;99.90;;;;;;5047637;28;20209;-72
2021/04/22 08:16:21;;;;;;;16.08;13.27;;;11.00;99.90;;;;;;5055604;28;20270;-72
2021/04/22 08:18:47;;;;;;;17.95;13.30;;;11.10;99.90;;;;;;5059923;28;20225;-71
2021/04/22 08:21:13;;;;;;;13.93;12.40;;;11.20;99.90;;;;;;5047678;28;20212;-71
2021/04/22 08:23:40;;;;;;;17.70;11.63;;;11.30;99.90;;;;;;5067304;28;20294;-71
2021/04/22 08:26:08;;;;;;;16.42;10.88;;;11.30;99.90;;;;;;5047829;28;20205;-71
2021/04/22 08:28:36;;;;;;;15.48;12.27;;;11.30;99.90;;;;;;5065796;28;20327;-72
2021/04/22 08:31:05;;;;;;;18.63;13.35;;;11.50;99.90;;;;;;5045376;28;20214;-73
2021/04/22 08:33:34;;;;;;;16.38;12.55;;;11.60;99.90;;;;;;5046090;28;20216;-70
2021/04/22 08:36:00;;;;;;;14.07;11.98;;;11.80;99.90;;;;;;5056848;28;20220;-71
2021/04/22 08:38:26;;;;;;;14.50;10.90;;;12.00;99.90;;;;;;5045759;28;20220;-72
2021/04/22 08:40:54;;;;;;;18.93;13.23;;;12.20;99.90;;;;;;5046125;28;20567;-72
2021/04/22 08:43:21;;;;;;;16.45;10.80;;;12.30;99.90;;;;;;5065901;28;20462;-72
2021/04/22 08:45:48;;;;;;;16.67;10.60;;;12.40;99.90;;;;;;5067406;28;20838;-71
2021/04/22 08:48:15;;;;;;;12.82;9.82;;;12.50;99.90;;;;;;5067299;28;20353;-70
2021/04/22 08:50:43;;;;;;;14.57;11.10;;;12.40;99.90;;;;;;5067023;28;20196;-70
2021/04/22 08:53:14;;;;;;;10.93;9.80;;;12.60;99.90;;;;;;5065809;28;20470;-71
2021/04/22 08:55:41;;;;;;;18.20;11.50;;;12.90;99.90;;;;;;5067753;28;20471;-71
2021/04/22 08:58:08;;;;;;;15.03;9.00;;;13.30;99.90;;;;;;5052899;28;20197;-71
2021/04/22 09:00:37;;;;;;;10.97;8.90;;;13.60;98.50;;;;;;5047065;28;20459;-71
2021/04/22 09:03:05;;;;;;;18.70;9.80;;;13.80;98.20;;;;;;5051756;28;20470;-71
2021/04/22 09:05:32;;;;;;;12.73;9.13;;;13.80;98.00;;;;;;5067593;28;20466;-71
2021/04/22 09:07:58;;;;;;;14.37;9.90;;;13.80;96.90;;;;;;5050640;28;20459;-71
2021/04/22 09:10:27;;;;;;;11.80;9.47;;;13.80;97.90;;;;;;5056594;28;20477;-72
2021/04/22 09:13:02;;;;;;;12.10;9.40;;;13.90;97.30;;;;;;5053809;28;20459;-71
2021/04/22 09:15:30;;;;;;;14.43;9.30;;;14.10;97.20;;;;;;5048379;28;20890;-71
2021/04/22 09:17:59;;;;;;;15.40;9.80;;;14.50;95.80;;;;;;5047789;28;20495;-72
2021/04/22 09:20:34;;;;;;;11.80;9.97;;;15.20;96.40;;;;;;5045714;28;20462;-72
2021/04/22 09:23:00;;;;;;;11.03;9.07;;;16.10;94.40;;;;;;5059212;28;20454;-72
2021/04/22 09:25:28;;;;;;;10.83;9.17;;;16.50;93.90;;;;;;5060058;28;20485;-71
2021/04/22 09:28:04;;;;;;;13.33;9.00;;;17.10;93.30;;;;;;5057628;28;20454;-71
2021/04/22 09:30:36;;;;;;;14.20;9.57;;;17.70;91.90;;;;;;5055660;28;20468;-71
2021/04/22 09:33:02;;;;;;;11.53;8.60;;;18.40;91.20;;;;;;5057346;28;20455;-73
2021/04/22 09:35:31;;;;;;;14.40;9.80;;;18.80;87.90;;;;;;5064086;28;20474;-72
2021/04/22 09:37:58;;;;;;;9.83;8.83;;;19.00;88.70;;;;;;5049305;28;20483;-72
2021/04/22 09:40:28;;;;;;;12.90;9.97;;;18.90;87.70;;;;;;5056815;28;20459;-71
2021/04/22 09:42:56;;;;;;;11.93;7.87;;;19.10;85.70;;;;;;5047628;28;20516;-73
2021/04/22 09:45:24;;;;;;;11.93;8.23;;;19.60;82.60;;;;;;5053220;28;20524;-72
2021/04/22 09:47:51;;;;;;;11.70;8.67;;;20.00;81.90;;;;;;5041646;28;20554;-73
2021/04/22 09:50:21;;;;;;;9.73;7.90;;;20.30;81.70;;;;;;5051747;28;20570;-72
2021/04/22 09:52:52;;;;;;;10.13;7.63;;;20.80;79.60;;;;;;5066899;28;20458;-72
2021/04/22 09:55:21;;;;;;;9.83;8.83;;;20.60;78.70;;;;;;5050889;28;20459;-72
2021/04/22 09:57:49;;;;;;;10.17;8.20;;;20.60;77.40;;;;;;5050708;28;20851;-72
2021/04/22 10:00:22;;;;;;;12.13;7.73;;;20.60;77.40;;;;;;5052178;28;20978;-71
2021/04/22 10:02:53;;;;;;;10.80;8.10;;;20.30;75.60;;;;;;5054773;28;20466;-72
2021/04/22 10:05:22;;;;;;;9.70;7.23;;;20.80;75.10;;;;;;5051577;28;20845;-72
2021/04/22 10:07:50;;;;;;;9.90;8.10;;;21.30;74.60;;;;;;5054294;28;20475;-72
2021/04/22 10:10:21;;;;;;;7.23;6.30;;;21.40;75.00;;;;;;5054050;28;20479;-72
2021/04/22 10:12:48;;;;;;;7.60;6.60;;;21.80;73.10;;;;;;5053541;28;20475;-72
2021/04/22 10:15:18;;;;;;;6.83;6.10;;;22.10;72.70;;;;;;5050179;28;20464;-71
2021/04/22 10:17:52;;;;;;;9.23;7.37;;;22.20;70.50;;;;;;5052753;28;20970;-72
2021/04/22 10:20:19;;;;;;;15.07;7.10;;;22.20;70.50;;;;;;5049787;28;20470;-72
2021/04/22 10:22:48;;;;;;;7.37;6.27;;;22.50;71.40;;;;;;5051640;28;20460;-72
2021/04/22 10:25:17;;;;;;;8.57;7.00;;;22.80;70.80;;;;;;5051581;28;20504;-71
2021/04/22 10:27:44;;;;;;;8.00;7.00;;;23.40;69.60;;;;;;5051643;28;20443;-72
2021/04/22 10:30:13;;;;;;;8.90;6.30;;;23.20;66.10;;;;;;5051709;28;20483;-73
2021/04/22 10:32:41;;;;;;;6.27;5.60;;;22.70;67.70;;;;;;5053622;28;20470;-72
2021/04/22 10:35:11;;;;;;;7.97;6.43;;;22.90;65.60;;;;;;5071887;28;20473;-73
2021/04/22 10:37:40;;;;;;;8.40;6.10;;;23.20;68.20;;;;;;5072570;28;20486;-72
2021/04/22 10:40:07;;;;;;;8.70;6.50;;;23.60;66.80;;;;;;5072023;28;20482;-74
2021/04/22 10:42:36;;;;;;;7.53;5.90;;;23.70;64.30;;;;;;5071992;28;20465;-71
2021/04/22 10:45:03;;;;;;;9.73;6.67;;;23.40;62.80;;;;;;5072279;28;20993;-72
2021/04/22 10:47:31;;;;;;;7.60;6.10;;;23.10;64.30;;;;;;5072085;28;20462;-71
2021/04/22 10:49:57;;;;;;;8.83;6.70;;;22.80;67.30;;;;;;5071693;28;20482;-74
2021/04/22 10:52:24;;;;;;;8.33;6.40;;;22.70;63.70;;;;;;5059146;28;20460;-74
2021/04/22 10:54:52;;;;;;;6.93;5.20;;;22.90;65.70;;;;;;5056341;28;20466;-72
2021/04/22 10:57:23;;;;;;;5.33;4.70;;;23.30;64.10;;;;;;5055909;28;20483;-71
2021/04/22 11:00:07;;;;;;;6.00;5.47;;;23.50;60.50;;;;;;5051771;28;21220;-71
2021/04/22 11:02:42;;;;;;;8.17;5.20;;;23.50;63.80;;;;;;5051484;28;20471;-71
2021/04/22 11:05:22;;;;;;;6.77;4.80;;;23.80;60.90;;;;;;5051911;28;20462;-72
2021/04/22 11:07:58;;;;;;;7.07;5.60;;;23.80;60.20;;;;;;5051675;28;20451;-72
2021/04/22 11:10:33;;;;;;;7.43;5.70;;;23.60;60.10;;;;;;5050923;28;20463;-73
2021/04/22 11:13:09;;;;;;;7.70;6.30;;;23.20;62.50;;;;;;5051547;28;20462;-72
2021/04/22 11:15:36;;;;;;;10.90;6.20;;;22.50;61.50;;;;;;5051689;28;20466;-72
2021/04/22 11:18:09;;;;;;;9.40;7.50;;;22.10;62.70;;;;;;5051125;28;20809;-73
2021/04/22 11:20:39;;;;;;;10.37;7.00;;;22.30;61.20;;;;;;5050603;28;20464;-72
2021/04/22 11:23:12;;;;;;;7.40;6.17;;;22.70;60.30;;;;;;5051002;28;20459;-72
2021/04/22 11:25:48;;;;;;;7.70;5.20;;;23.00;61.90;;;;;;5051161;28;20999;-72
2021/04/22 11:28:16;;;;;;;9.90;5.53;;;23.70;61.50;;;;;;5052786;28;20460;-73
2021/04/22 11:30:43;;;;;;;8.37;6.50;;;24.10;61.60;;;;;;5049329;28;20893;-72
2021/04/22 11:33:09;;;;;;;7.53;5.70;;;24.00;61.00;;;;;;5057481;28;20524;-73
2021/04/22 11:35:37;;;;;;;10.33;6.27;;;24.00;62.30;;;;;;5062572;28;20462;-72
2021/04/22 11:38:09;;;;;;;8.80;6.13;;;24.40;60.80;;;;;;5066897;28;21038;-73
2021/04/22 11:40:38;;;;;;;7.63;6.30;;;24.60;59.20;;;;;;5052415;28;20541;-72
2021/04/22 11:43:05;;;;;;;7.70;6.10;;;24.40;60.70;;;;;;5056721;28;20459;-71
2021/04/22 11:45:33;;;;;;;6.53;4.40;;;24.20;59.80;;;;;;5059520;28;20460;-70
2021/04/22 11:48:06;;;;;;;6.77;4.40;;;24.60;58.90;;;;;;5059055;28;20451;-71
2021/04/22 11:50:41;;;;;;;6.57;5.50;;;24.70;58.70;;;;;;5059286;28;20466;-71
2021/04/22 11:53:07;;;;;;;9.10;6.83;;;24.70;60.10;;;;;;5054247;28;20515;-71
2021/04/22 11:55:35;;;;;;;6.60;5.80;;;24.60;60.30;;;;;;5067617;28;20462;-72
2021/04/22 11:58:08;;;;;;;7.57;6.23;;;24.20;60.20;;;;;;5048932;28;20846;-70
2021/04/22 12:00:38;;;;;;;6.23;5.57;;;24.30;60.80;;;;;;5039665;28;20462;-71
2021/04/22 12:03:05;;;;;;;7.13;6.10;;;24.30;60.30;;;;;;5043356;28;20477;-71
2021/04/22 12:05:33;;;;;;;7.90;6.17;;;24.30;59.10;;;;;;5056790;28;20463;-71
2021/04/22 12:08:01;;;;;;;7.23;5.30;;;24.40;60.00;;;;;;5055664;28;20780;-70
2021/04/22 12:10:30;;;;;;;6.07;4.57;;;24.20;60.00;;;;;;5048802;28;20473;-70
2021/04/22 12:13:07;;;;;;;7.03;5.10;;;24.10;59.90;;;;;;5050170;28;20456;-71
2021/04/22 12:15:39;;;;;;;5.73;5.13;;;24.60;60.40;;;;;;5049603;28;20466;-71
2021/04/22 12:18:08;;;;;;;6.47;5.00;;;24.50;60.20;;;;;;5049838;28;20884;-70
2021/04/22 12:20:35;;;;;;;7.87;4.93;;;24.60;59.00;;;;;;5049789;28;20513;-70
2021/04/22 12:23:02;;;;;;;7.93;4.70;;;24.70;56.60;;;;;;5049779;28;20455;-71
2021/04/22 12:25:29;;;;;;;5.30;4.50;;;24.90;57.00;;;;;;5049427;28;20943;-70
2021/04/22 12:27:57;;;;;;;4.90;4.03;;;25.00;56.00;;;;;;5048831;28;20525;-70
2021/04/22 12:30:28;;;;;;;6.50;4.20;;;24.70;57.70;;;;;;5048864;28;20838;-70
2021/04/22 12:32:57;;;;;;;5.93;4.60;;;25.00;56.00;;;;;;5049648;28;20963;-70
2021/04/22 12:35:27;;;;;;;7.60;5.40;;;25.50;56.60;;;;;;5048833;28;20464;-71
2021/04/22 12:37:54;;;;;;;4.80;3.90;;;25.20;57.20;;;;;;5049513;28;20487;-70
2021/04/22 12:40:22;;;;;;;6.93;3.97;;;25.00;57.00;;;;;;5048521;28;20487;-70
2021/04/22 12:42:49;;;;;;;4.70;3.40;;;25.10;56.20;;;;;;5049233;28;20463;-70